Data for 04/21/2009

Time Sea-Level Adjusted Pressure Absolute Pressure Temperature Relative Humidity Dew Point   
(mb) (inHg) (mb) (inHg) (C) (F) (%) (C) (F)
00:05 1024 30.24 853 25.19 11.3 52.3 31 -5.1 22.7
00:10 1024 30.24 853 25.19 11.3 52.4 30 -5.6 21.9
00:15 1024 30.24 853 25.19 11.5 52.7 30 -5.3 22.4
00:20 1024 30.24 853 25.19 11.4 52.6 32 -4.7 23.6
00:25 1024 30.24 853 25.19 10.6 51.1 33 -5 23.1
00:30 1024 30.24 853 25.19 10.7 51.2 32 -5.2 22.6
00:35 1024 30.24 853 25.19 10.9 51.5 31 -5.4 22.3
00:40 1024 30.24 853 25.19 11.1 51.9 29 -6.3 20.7
00:45 1024 30.24 853 25.19 11.5 52.7 31 -5.1 22.8
00:50 1024 30.24 853 25.19 11 51.8 32 -5.1 22.8
00:55 1024 30.24 853 25.19 10.6 51.2 33 -5 23
01:00 1024 30.24 853 25.19 10.3 50.6 33 -5.2 22.7
01:05 1024 30.24 853 25.19 10.3 50.5 34 -4.9 23.1
01:10 1024 30.24 853 25.19 10.3 50.5 32 -5.6 21.9
01:15 1024 30.24 853 25.19 10.8 51.5 31 -5.6 21.9
01:20 1024 30.24 853 25.19 10.9 51.5 32 -5 22.9
01:25 1024 30.24 853 25.19 10.1 50.2 36 -4.3 24.3
01:30 1024 30.24 853 25.19 9.1 48.3 38 -4.4 24.1
01:35 1024 30.24 853 25.19 8.6 47.5 40 -4.1 24.6
01:40 1024 30.24 854 25.22 7.9 46.2 43 -3.9 25.1
01:45 1024 30.24 854 25.22 7.8 46 41 -4.5 23.9
01:50 1024 30.24 854 25.22 8.1 46.7 41 -4.3 24.2
01:55 1024 30.24 853 25.19 8.1 46.6 42 -4.1 24.6
02:00 1024 30.24 853 25.19 8.1 46.6 41 -4.2 24.5
02:05 1024 30.24 853 25.19 8.1 46.5 42 -4 24.7
02:10 1024 30.24 853 25.19 7.6 45.7 44 -3.9 25
02:15 1024 30.24 853 25.19 7.4 45.2 43 -4.3 24.2
02:20 1024 30.24 853 25.19 7.5 45.6 43 -4.3 24.3
02:25 1024 30.24 853 25.19 7.6 45.7 43 -4.3 24.3
02:30 1024 30.24 853 25.19 7.7 45.8 42 -4.3 24.3
02:35 1024 30.24 853 25.19 7.7 45.8 42 -4.4 24.1
02:40 1024 30.24 853 25.19 7.6 45.8 43 -4.1 24.6
02:45 1024 30.24 853 25.19 7.6 45.6 43 -4.2 24.4
02:50 1024 30.24 853 25.19 7.4 45.3 44 -4.1 24.7
02:55 1024 30.24 853 25.19 7.2 45 44 -4.3 24.3
03:00 1024 30.24 853 25.19 7.3 45.1 44 -4.3 24.3
03:05 1024 30.24 853 25.19 7.3 45.1 44 -4.3 24.3
03:10 1024 30.24 853 25.19 7.3 45.2 44 -4.2 24.4
03:15 1024 30.24 853 25.19 7.2 45 44 -4.2 24.5
03:20 1024 30.24 853 25.19 7.2 44.9 42 -4.9 23.2
03:25 1024 30.24 853 25.19 7.8 46.1 38 -5.4 22.2
03:30 1024 30.24 853 25.19 8.4 47.1 38 -5.1 22.8
03:35 1024 30.24 853 25.19 8.3 46.9 39 -4.8 23.3
03:40 1024 30.24 853 25.19 8 46.4 40 -4.6 23.7
03:45 1024 30.24 853 25.19 7.8 46 41 -4.7 23.6
03:50 1024 30.24 853 25.19 7.5 45.5 42 -4.4 24.1
03:55 1024 30.24 853 25.19 7.2 44.9 43 -4.4 24
04:00 1024 30.24 853 25.19 6.9 44.5 45 -4.3 24.3
04:05 1024 30.24 853 25.19 6.8 44.2 44 -4.5 23.9
04:10 1024 30.24 853 25.19 6.8 44.3 44 -4.5 23.9
04:15 1024 30.24 853 25.19 6.8 44.3 44 -4.7 23.6
04:20 1024 30.24 853 25.19 7.2 45 41 -5.3 22.5
04:25 1024 30.24 853 25.19 7.6 45.7 41 -4.9 23.2
04:30 1024 30.24 853 25.19 7.4 45.4 42 -4.7 23.6
04:35 1024 30.24 853 25.19 7.3 45.1 42 -4.7 23.6
04:40 1024 30.24 853 25.19 7.2 45 43 -4.6 23.7
04:45 1024 30.24 853 25.19 7 44.6 44 -4.4 24.1
04:50 1024 30.24 853 25.19 6.8 44.3 45 -4.4 24.1
04:55 1024 30.24 853 25.19 6.7 44.1 45 -4.3 24.3
05:00 1024 30.24 853 25.19 6.4 43.5 46 -4.3 24.3
05:05 1024 30.24 853 25.19 6.3 43.3 46 -4.4 24.1
05:10 1024 30.24 853 25.19 6.4 43.5 46 -4.4 24
05:15 1024 30.24 853 25.19 6.5 43.7 46 -4.4 24.2
05:20 1024 30.24 853 25.19 6.2 43.1 47 -4.2 24.4
05:25 1024 30.24 853 25.19 6.1 42.9 47 -4.3 24.2
05:30 1024 30.24 853 25.19 6.1 42.9 47 -4.4 24.1
05:35 1024 30.24 853 25.19 5.9 42.7 48 -4.3 24.2
05:40 1024 30.24 853 25.19 6 42.9 47 -4.5 24
05:45 1024 30.24 853 25.19 6.2 43.1 47 -4.2 24.4
05:50 1024 30.24 853 25.19 6.1 43.1 47 -4.2 24.4
05:55 1024 30.24 853 25.19 6 42.7 48 -4.1 24.5
06:00 1024 30.24 853 25.19 5.6 42.1 49 -4.2 24.4
06:05 1024 30.24 853 25.19 5.5 41.9 49 -4.3 24.2
06:10 1024 30.24 853 25.19 5.8 42.5 47 -4.6 23.7
06:15 1024 30.24 853 25.19 6.1 43.1 47 -4.3 24.3
06:20 1024 30.24 853 25.19 6 42.8 48 -4.3 24.3
06:25 1024 30.24 853 25.19 5.9 42.6 47 -4.6 23.7
06:30 1024 30.24 853 25.19 6 42.8 47 -4.6 23.7
06:35 1024 30.24 853 25.19 5.9 42.5 49 -4 24.8
06:40 1024 30.24 853 25.19 5.4 41.8 49 -4.6 23.8
06:45 1024 30.24 853 25.19 5.8 42.4 48 -4.4 24
06:50 1024 30.24 853 25.19 6.1 42.9 47 -4.3 24.3
06:55 1024 30.24 853 25.19 6.2 43.1 48 -4.1 24.6
07:00 1024 30.24 853 25.19 6.2 43.2 48 -4 24.8
07:05 1024 30.24 853 25.19 6.1 43 48 -4.1 24.7
07:10 1024 30.24 853 25.19 5.9 42.5 50 -3.8 25.1
07:15 1024 30.24 853 25.19 5.6 42.1 50 -4.1 24.6
07:20 1024 30.24 853 25.19 5.7 42.3 49 -4.2 24.4
07:25 1024 30.24 853 25.19 6.3 43.4 47 -4.1 24.6
07:30 1024 30.24 853 25.19 7.1 44.7 46 -3.7 25.3
07:35 1024 30.24 853 25.19 7.1 44.9 47 -3.5 25.7
07:40 1024 30.24 853 25.19 7.4 45.4 43 -4.3 24.3
07:45 1024 30.24 853 25.19 7.7 45.9 43 -3.9 24.9
07:50 1024 30.24 853 25.19 7.9 46.1 44 -3.5 25.6
07:55 1024 30.24 853 25.19 8 46.4 43 -3.8 25.1
08:00 1024 30.24 853 25.19 8.3 47 42 -3.9 24.9
08:05 1024 30.24 853 25.19 9.1 48.4 40 -3.9 25
08:10 1024 30.24 853 25.19 9.5 49.1 40 -3.3 26
08:15 1024 30.24 853 25.19 9.7 49.5 39 -3.4 25.9
08:20 1024 30.24 853 25.19 10.1 50.2 40 -3 26.7
08:25 1024 30.24 853 25.19 10.9 51.6 36 -3.4 25.9
08:30 1024 30.24 853 25.19 12 53.5 33 -3.6 25.5
08:35 1024 30.24 853 25.19 12.7 54.8 32 -3.4 25.9
08:40 1024 30.24 853 25.19 12.8 55.1 35 -2.2 28.1
08:45 1024 30.24 853 25.19 12.7 54.9 33 -3.1 26.5
08:50 1024 30.24 853 25.19 12.7 54.9 32 -3.5 25.8
08:55 1024 30.24 853 25.19 13.1 55.5 32 -3.1 26.4
09:00 1024 30.24 853 25.19 13.6 56.6 32 -2.5 27.5
09:05 1024 30.24 853 25.19 13.7 56.7 31 -2.9 26.8
09:10 1024 30.24 853 25.19 14.6 58.2 30 -2.7 27.2
09:15 1024 30.24 853 25.19 14.7 58.4 30 -2.6 27.3
09:20 1024 30.24 853 25.19 15.2 59.3 27 -3.6 25.5
09:25 1024 30.24 853 25.19 16.1 60.9 27 -2.9 26.8
09:30 1023 30.21 853 25.19 16.4 61.5 26 -3.2 26.2
09:35 1023 30.21 853 25.19 16.7 62.1 24 -3.6 25.5
09:40 1023 30.21 853 25.19 17 62.5 24 -3.6 25.6
09:45 1023 30.21 853 25.19 17.3 63.1 23 -3.7 25.3
09:50 1023 30.21 852 25.16 17.5 63.4 24 -3.4 25.9
09:55 1023 30.21 852 25.16 17.5 63.5 24 -3.4 25.9
10:00 1023 30.21 852 25.16 17.7 63.9 23 -3.9 25.1
10:05 1023 30.21 852 25.16 18 64.5 22 -4 24.8
10:10 1023 30.21 852 25.16 18.4 65.1 21 -4.1 24.6
10:15 1023 30.21 852 25.16 18.7 65.6 21 -4 24.7
10:20 1023 30.21 852 25.16 18.4 65 22 -3.8 25.2
10:25 1023 30.21 852 25.16 18.4 65.2 20 -4.7 23.6
10:30 1023 30.21 852 25.16 18.2 64.7 22 -3.8 25.1
10:35 1023 30.21 852 25.16 18.4 65.1 20 -4.8 23.3
10:40 1023 30.21 852 25.16 18.6 65.5 22 -3.3 26.1
10:45 1023 30.21 852 25.16 18.2 64.8 20 -5 23
10:50 1023 30.21 852 25.16 17.8 64 21 -4.7 23.6
10:55 1023 30.21 852 25.16 18.2 64.7 21 -4.6 23.8
11:00 1023 30.21 852 25.16 18 64.4 23 -3.5 25.7
11:05 1023 30.21 852 25.16 18.8 65.9 20 -4.7 23.6
11:10 1023 30.21 852 25.16 18.5 65.4 21 -4.2 24.5
11:15 1023 30.21 852 25.16 18.5 65.3 21 -4 24.8
11:20 1023 30.21 852 25.16 18.9 66 21 -3.9 25
11:25 1023 30.21 852 25.16 18.2 64.8 22 -3.9 25
11:30 1023 30.21 852 25.16 19 66.1 19 -5.4 22.3
11:35 1023 30.21 852 25.16 19.3 66.8 19 -5.1 22.9
11:40 1022 30.18 852 25.16 19.4 66.9 19 -4.8 23.4
11:45 1022 30.18 852 25.16 20 68.1 18 -5.1 22.8
11:50 1022 30.18 852 25.16 20.2 68.3 18 -5 23.1
11:55 1022 30.18 851 25.13 19.9 67.7 18 -5.3 22.4
12:00 1022 30.18 851 25.13 20.2 68.4 17 -5.6 21.9
12:05 1022 30.18 851 25.13 20.4 68.8 17 -5.1 22.9
12:10 1022 30.18 851 25.13 19.4 66.8 19 -5 23.1
12:15 1022 30.18 851 25.13 19.6 67.2 17 -6.2 20.8
12:20 1022 30.18 851 25.13 20.5 68.9 15 -6.6 20.1
12:25 1022 30.18 851 25.13 21.2 70.2 15 -6.2 20.9
12:30 1022 30.18 851 25.13 20.9 69.7 16 -5.9 21.3
12:35 1022 30.18 851 25.13 20.4 68.8 17 -5.7 21.8
12:40 1022 30.18 851 25.13 21.1 70 16 -5.7 21.7
12:45 1022 30.18 851 25.13 21.7 71 15 -6 21.2
12:50 1022 30.18 851 25.13 22.1 71.7 15 -5.5 22.1
12:55 1022 30.18 851 25.13 21.8 71.2 16 -5.1 22.8
13:00 1021 30.15 851 25.13 21.8 71.2 16 -4.8 23.4
13:05 1021 30.15 851 25.13 21.4 70.5 16 -5.1 22.8
13:10 1021 30.15 851 25.13 22 71.6 16 -4.8 23.4
13:15 1021 30.15 850 25.1 22.5 72.6 15 -4.9 23.2
13:20 1021 30.15 850 25.1 22 71.5 17 -3.9 24.9
13:25 1021 30.15 850 25.1 21.4 70.6 18 -3.8 25.1
13:30 1021 30.15 850 25.1 21.8 71.2 17 -4.4 24.1
13:35 1021 30.15 850 25.1 22.3 72.1 17 -3.5 25.6
13:40 1021 30.15 850 25.1 21.6 70.8 16 -5.2 22.7
13:45 1021 30.15 850 25.1 23 73.4 16 -3.9 25
13:50 1021 30.15 850 25.1 23.2 73.7 15 -4.4 24.1
13:55 1021 30.15 850 25.1 23.1 73.6 15 -4.9 23.2
14:00 1020 30.12 850 25.1 22.7 72.9 17 -3.6 25.5
14:05 1020 30.12 850 25.1 22.4 72.4 16 -4.7 23.5
14:10 1020 30.12 849 25.07 23.2 73.7 15 -4.4 24
14:15 1020 30.12 849 25.07 23.1 73.6 14 -5.9 21.4
14:20 1020 30.12 849 25.07 22.8 73 13 -6.4 20.4
14:25 1020 30.12 849 25.07 22.2 71.9 17 -3.8 25.2
14:30 1020 30.12 849 25.07 22.1 71.7 15 -5.2 22.6
14:35 1020 30.12 849 25.07 22.9 73.2 15 -4.7 23.5
14:40 1020 30.12 849 25.07 23.2 73.7 14 -5.9 21.4
14:45 1020 30.12 849 25.07 23.3 74 13 -6.7 19.9
14:50 1020 30.12 849 25.07 23.3 74 13 -6.6 20.2
14:55 1020 30.12 849 25.07 23.4 74.2 12 -7 19.4
15:00 1020 30.12 849 25.07 23.6 74.6 13 -6.1 21
15:05 1020 30.12 849 25.07 23.7 74.7 13 -6.3 20.7
15:10 1020 30.12 849 25.07 23.7 74.6 13 -5.7 21.7
15:15 1020 30.12 849 25.07 24 75.1 12 -6.9 19.6
15:20 1019 30.09 849 25.07 23.7 74.6 13 -6.7 20
15:25 1019 30.09 849 25.07 23.7 74.7 11 -8.1 17.3
15:30 1019 30.09 849 25.07 23.6 74.4 11 -8.3 17
15:35 1019 30.09 848 25.04 23.5 74.3 10 -9.2 15.5
15:40 1019 30.09 848 25.04 23.6 74.4 11 -8.6 16.5
15:45 1019 30.09 848 25.04 23.6 74.5 11 -8.9 16
15:50 1019 30.09 848 25.04 23.7 74.7 11 -8.5 16.6
15:55 1019 30.09 848 25.04 23.7 74.7 11 -8.4 16.9
16:00 1019 30.09 848 25.04 23.9 75 12 -7.5 18.5
16:05 1019 30.09 848 25.04 23.9 75 12 -7 19.4
16:10 1019 30.09 848 25.04 23.2 73.8 12 -7.7 18.2
16:15 1019 30.09 848 25.04 23 73.4 12 -8.1 17.5
16:20 1019 30.09 848 25.04 23.3 73.9 11 -8.2 17.3
16:25 1019 30.09 848 25.04 23.7 74.6 12 -7.5 18.6
16:30 1019 30.09 848 25.04 23.4 74.2 11 -8.2 17.3
16:35 1019 30.09 848 25.04 23.1 73.6 11 -8.4 16.9
16:40 1018 30.06 848 25.04 22.7 72.8 13 -7.5 18.6
16:45 1018 30.06 848 25.04 23.5 74.3 12 -7.9 17.8
16:50 1018 30.06 848 25.04 23.9 75 12 -7.5 18.5
16:55 1018 30.06 848 25.04 23.6 74.6 11 -7.8 17.9
17:00 1018 30.06 847 25.01 23.5 74.2 12 -7.8 17.9
17:05 1018 30.06 847 25.01 23.7 74.7 11 -7.7 18.1
17:10 1018 30.06 847 25.01 23.9 74.9 12 -7.4 18.7
17:15 1018 30.06 847 25.01 23.8 74.8 12 -7 19.5
17:20 1018 30.06 847 25.01 23.3 73.9 12 -7.3 18.8
17:25 1018 30.06 847 25.01 23.5 74.2 12 -7.6 18.3
17:30 1018 30.06 847 25.01 23.5 74.4 12 -7.9 17.8
17:35 1018 30.06 847 25.01 23.4 74.1 12 -7.2 19
17:40 1018 30.06 847 25.01 23.4 74.1 12 -7.7 18.1
17:45 1018 30.06 847 25.01 23.4 74.1 12 -7.5 18.5
17:50 1018 30.06 847 25.01 23.7 74.6 12 -7.3 18.9
17:55 1018 30.06 847 25.01 23.5 74.2 12 -7.5 18.4
18:00 1018 30.06 847 25.01 23.7 74.6 11 -8.2 17.2
18:05 1018 30.06 847 25.01 23.3 73.9 12 -7.6 18.3
18:10 1018 30.06 847 25.01 23.3 74 12 -7.8 17.9
18:15 1018 30.06 847 25.01 23.3 73.9 13 -6.9 19.5
18:20 1018 30.06 847 25.01 23.3 74 12 -7.1 19.3
18:25 1018 30.06 847 25.01 23.2 73.8 12 -7.8 18
18:30 1018 30.06 847 25.01 23.2 73.8 12 -7.1 19.2
18:35 1017 30.03 847 25.01 23.4 74.1 12 -7.7 18.2
18:40 1017 30.03 847 25.01 22.8 73.1 12 -7.7 18.2
18:45 1017 30.03 847 25.01 22.7 72.9 12 -7.7 18.1
18:50 1017 30.03 847 25.01 22.7 72.8 12 -8 17.7
18:55 1017 30.03 847 25.01 22.5 72.6 12 -8.5 16.7
19:00 1017 30.03 847 25.01 22.4 72.4 12 -8.5 16.7
19:05 1017 30.03 846 24.98 22.3 72.1 12 -8.2 17.3
19:10 1017 30.03 846 24.98 22.2 71.9 12 -7.9 17.8
19:15 1017 30.03 846 24.98 22 71.6 13 -7.8 17.9
19:20 1017 30.03 846 24.98 22 71.6 13 -8 17.6
19:25 1017 30.03 846 24.98 21.9 71.3 13 -7.6 18.4
19:30 1017 30.03 846 24.98 21.8 71.2 13 -7.4 18.6
19:35 1017 30.03 846 24.98 21.6 71 13 -7.8 18
19:40 1017 30.03 846 24.98 21.5 70.6 14 -7.2 19
19:45 1017 30.03 846 24.98 21.3 70.3 14 -7.5 18.5
19:50 1017 30.03 846 24.98 21.1 70 14 -7.4 18.7
19:55 1017 30.03 846 24.98 20.9 69.6 14 -7.1 19.2
20:00 1017 30.03 846 24.98 20.6 69.1 15 -6.9 19.6
20:05 1017 30.03 846 24.98 20.4 68.6 15 -7.1 19.1
20:10 1017 30.03 846 24.98 20 68.1 16 -6.5 20.3
20:15 1017 30.03 846 24.98 19.7 67.5 17 -5.6 21.9
20:20 1017 30.03 846 24.98 19.4 67 17 -6.3 20.7
20:25 1017 30.03 846 24.98 19.3 66.7 17 -5.9 21.4
20:30 1017 30.03 846 24.98 19.1 66.3 22 -3.1 26.4
20:35 1017 30.03 846 24.98 16.9 62.4 29 -1 30.1
20:40 1017 30.03 846 24.98 15.6 60.1 29 -2.4 27.7
20:45 1017 30.03 846 24.98 15.7 60.3 23 -5.3 22.4
20:50 1017 30.03 846 24.98 17 62.5 21 -5.4 22.2
20:55 1017 30.03 846 24.98 17 62.6 21 -5.7 21.8
21:00 1017 30.03 847 25.01 16.7 62.1 22 -4.9 23.2
21:05 1017 30.03 847 25.01 16.3 61.3 22 -5.3 22.4
21:10 1017 30.03 847 25.01 16.3 61.4 22 -5.6 21.8
21:15 1018 30.06 847 25.01 16.1 60.9 23 -4.7 23.5
21:20 1018 30.06 847 25.01 15.6 60 24 -4.6 23.8
21:25 1018 30.06 847 25.01 15 59.1 25 -4.7 23.6
21:30 1018 30.06 847 25.01 14.6 58.2 26 -4.4 24.1
21:35 1018 30.06 847 25.01 14.4 57.9 28 -4 24.8
21:40 1018 30.06 847 25.01 14.2 57.6 28 -4.1 24.6
21:45 1018 30.06 847 25.01 14.1 57.4 28 -3.9 24.9
21:50 1018 30.06 847 25.01 14.1 57.4 28 -4 24.8
21:55 1018 30.06 847 25.01 14.1 57.3 28 -4 24.8
22:00 1018 30.06 847 25.01 14.2 57.5 28 -3.9 25
22:05 1018 30.06 847 25.01 14.2 57.5 28 -4.2 24.5
22:10 1018 30.06 847 25.01 14.1 57.3 28 -4 24.8
22:15 1018 30.06 847 25.01 13.8 56.8 30 -3.4 25.9
22:20 1018 30.06 847 25.01 13.5 56.3 31 -3.1 26.4
22:25 1018 30.06 847 25.01 13.3 56 31 -3.4 25.8
22:30 1018 30.06 847 25.01 13.3 55.9 31 -3.4 25.9
22:35 1018 30.06 847 25.01 13.4 56.1 31 -3.4 25.8
22:40 1017 30.03 847 25.01 13.3 55.9 32 -2.8 26.9
22:45 1017 30.03 847 25.01 13 55.4 32 -3.3 26
22:50 1017 30.03 847 25.01 13 55.4 32 -3.4 25.8
22:55 1017 30.03 847 25.01 12.9 55.3 32 -3.3 26.1
23:00 1017 30.03 847 25.01 12.7 54.8 32 -3.6 25.5
23:05 1017 30.03 846 24.98 12.3 54.2 32 -4 24.7
23:10 1017 30.03 846 24.98 12.3 54.2 31 -4.2 24.4
23:15 1017 30.03 846 24.98 12.5 54.4 30 -4.4 24.1
23:20 1017 30.03 846 24.98 12.5 54.4 31 -4.2 24.4
23:25 1017 30.03 846 24.98 12.3 54.1 32 -3.9 24.9
23:30 1017 30.03 846 24.98 12 53.6 32 -4.1 24.6
23:35 1017 30.03 846 24.98 11.9 53.3 32 -4.1 24.6
23:40 1017 30.03 846 24.98 11.7 53 33 -4.1 24.6
23:45 1017 30.03 846 24.98 11.7 53 31 -4.7 23.6
23:50 1017 30.03 846 24.98 12 53.6 31 -4.4 24
23:55 1017 30.03 846 24.98 12 53.5 32 -4.2 24.5
24:00 1017 30.03 846 24.98 12 53.6 32 -4.1 24.7